Time;durP1;ratioP1;P1;durP2;ratioP2;P2;SDS_P1;SDS_P2;PMS_P1;PMS_P2;Temp;Humidity;BMP_temperature;BMP_pressure;BME280_temperature;BME280_humidity;BME280_pressure;Samples;Min_cycle;Max_cycle;Signal;HPM_P1;HPM_P2
2021/08/04 00:04:00;;;;;;;3.60;2.20;;;13.60;93.50;;;;;;5929714;40;20142;-70
2021/08/04 00:08:09;;;;;;;3.00;2.30;;;13.60;93.70;;;;;;5931301;40;20049;-71
2021/08/04 00:12:11;;;;;;;4.03;2.40;;;13.50;93.80;;;;;;5927368;40;20082;-70
2021/08/04 00:16:12;;;;;;;3.40;2.20;;;13.50;93.80;;;;;;5928671;40;20457;-71
2021/08/04 00:20:15;;;;;;;2.97;1.95;;;13.40;93.80;;;;;;5929992;40;20129;-71
2021/08/04 00:24:17;;;;;;;3.33;2.22;;;13.40;93.90;;;;;;5926858;40;20080;-72
2021/08/04 00:28:19;;;;;;;3.55;1.95;;;13.30;93.90;;;;;;5927016;40;20076;-71
2021/08/04 00:32:21;;;;;;;3.28;1.85;;;13.30;93.90;;;;;;5920515;40;20077;-71
2021/08/04 00:36:23;;;;;;;;;;;13.20;93.80;;;;;;5931001;40;20379;-72
2021/08/04 00:40:25;;;;;;;2.20;1.40;;;13.10;93.20;;;;;;5932195;40;19944;-72
2021/08/04 00:44:26;;;;;;;;;;;13.00;93.60;;;;;;5927448;40;20049;-71
2021/08/04 00:48:28;;;;;;;2.73;1.67;;;13.00;93.10;;;;;;5924314;40;20018;-71
2021/08/04 00:52:31;;;;;;;3.28;1.70;;;13.00;93.70;;;;;;5933707;40;20050;-72
2021/08/04 00:56:33;;;;;;;;;;;12.90;93.80;;;;;;5931675;40;20408;-70
2021/08/04 01:00:40;;;;;;;3.13;1.30;;;12.80;93.10;;;;;;5930450;40;19936;-70
2021/08/04 01:04:53;;;;;;;2.80;1.33;;;12.80;93.70;;;;;;5924688;40;20056;-71
2021/08/04 01:08:57;;;;;;;2.15;1.38;;;12.70;93.80;;;;;;5938030;39;20077;-71
2021/08/04 01:13:09;;;;;;;1.85;1.20;;;12.70;93.90;;;;;;5931039;40;20055;-71
2021/08/04 01:17:12;;;;;;;2.22;1.45;;;12.70;93.90;;;;;;5923791;40;20440;-72
2021/08/04 01:21:19;;;;;;;2.50;1.50;;;12.70;94.00;;;;;;5933023;40;20150;-70
2021/08/04 01:25:25;;;;;;;3.15;1.70;;;12.60;94.00;;;;;;5938191;39;20724;-71
2021/08/04 01:29:28;;;;;;;3.55;1.48;;;12.60;94.00;;;;;;5932713;40;20068;-72
2021/08/04 01:33:31;;;;;;;2.47;1.35;;;12.50;94.00;;;;;;5933130;40;20036;-70
2021/08/04 01:37:35;;;;;;;3.35;1.42;;;12.50;94.10;;;;;;5933021;40;20049;-71
2021/08/04 01:41:41;;;;;;;3.35;1.42;;;12.50;94.10;;;;;;5927575;40;20093;-70
2021/08/04 01:45:43;;;;;;;3.28;1.52;;;12.50;94.10;;;;;;5932451;40;20044;-72
2021/08/04 01:49:46;;;;;;;3.78;1.42;;;12.40;94.10;;;;;;5932791;40;20382;-72
2021/08/04 01:53:50;;;;;;;2.53;1.27;;;12.40;94.10;;;;;;5928298;40;20134;-70
2021/08/04 01:57:52;;;;;;;2.70;1.40;;;12.30;94.10;;;;;;5937925;39;20052;-71
2021/08/04 02:02:14;;;;;;;2.15;1.58;;;12.20;94.10;;;;;;5931724;40;20044;-70
2021/08/04 02:06:42;;;;;;;5.50;1.83;;;12.20;94.10;;;;;;5931182;40;20063;-70
2021/08/04 02:10:53;;;;;;;3.63;1.92;;;12.20;94.00;;;;;;5942030;39;20070;-70
2021/08/04 02:15:01;;;;;;;3.00;1.63;;;12.20;94.20;;;;;;5928512;40;20485;-70
2021/08/04 02:19:41;;;;;;;3.03;1.60;;;12.10;94.00;;;;;;5940894;39;20056;-72
2021/08/04 02:23:45;;;;;;;3.42;1.83;;;12.10;94.10;;;;;;5927984;40;20432;-71
2021/08/04 02:27:50;;;;;;;3.30;1.80;;;12.00;94.10;;;;;;5928310;40;20044;-70
2021/08/04 02:31:52;;;;;;;2.80;1.70;;;12.00;94.10;;;;;;5928643;40;20997;-70
2021/08/04 02:35:56;;;;;;;2.45;1.48;;;12.00;94.10;;;;;;5938065;39;20844;-70
2021/08/04 02:39:58;;;;;;;3.22;1.60;;;12.00;94.20;;;;;;5930865;40;20048;-72
2021/08/04 02:44:01;;;;;;;4.47;2.05;;;12.00;94.20;;;;;;5928454;40;20047;-71
2021/08/04 02:48:04;;;;;;;3.47;1.90;;;12.00;94.20;;;;;;5939210;39;20047;-70
2021/08/04 02:52:07;;;;;;;3.33;1.90;;;12.00;94.20;;;;;;5931431;40;20052;-72
2021/08/04 02:56:08;;;;;;;4.40;1.73;;;12.00;94.20;;;;;;5931604;40;20045;-71
2021/08/04 03:00:11;;;;;;;5.38;2.33;;;11.90;94.20;;;;;;5926742;40;20044;-71
2021/08/04 03:04:13;;;;;;;4.75;2.10;;;11.90;94.20;;;;;;5931420;40;21203;-71
2021/08/04 03:08:15;;;;;;;2.55;1.30;;;11.80;94.30;;;;;;5930445;40;20062;-72
2021/08/04 03:12:17;;;;;;;3.88;1.77;;;11.80;94.30;;;;;;5931050;40;20044;-72
2021/08/04 03:16:19;;;;;;;3.95;1.80;;;11.70;94.20;;;;;;5928304;40;20057;-69
2021/08/04 03:20:21;;;;;;;3.25;1.83;;;11.70;94.30;;;;;;5940238;39;20056;-71
2021/08/04 03:24:23;;;;;;;5.05;2.50;;;11.70;94.30;;;;;;5931678;40;20048;-72
2021/08/04 03:28:25;;;;;;;3.78;2.00;;;11.60;94.30;;;;;;5930936;40;20113;-73
2021/08/04 03:32:26;;;;;;;5.13;1.88;;;11.60;94.30;;;;;;5930373;40;20037;-71
2021/08/04 03:36:29;;;;;;;3.55;1.65;;;11.60;94.30;;;;;;5931721;40;20048;-73
2021/08/04 03:40:31;;;;;;;4.25;2.28;;;11.60;94.40;;;;;;5930821;40;20455;-70
2021/08/04 03:44:33;;;;;;;5.05;2.17;;;11.60;94.30;;;;;;5931504;40;20092;-71
2021/08/04 03:48:35;;;;;;;4.95;1.85;;;11.60;94.30;;;;;;5927912;40;20485;-70
2021/08/04 03:52:41;;;;;;;3.22;1.70;;;11.50;94.40;;;;;;5929535;40;20358;-70
2021/08/04 03:56:43;;;;;;;2.38;1.50;;;11.50;94.50;;;;;;5940063;39;20434;-70
2021/08/04 04:00:45;;;;;;;4.60;1.67;;;11.50;94.40;;;;;;5930462;40;20036;-72
2021/08/04 04:04:47;;;;;;;2.78;1.73;;;11.50;94.40;;;;;;5925405;40;20057;-71
2021/08/04 04:08:49;;;;;;;;;;;11.50;94.40;;;;;;5933986;40;20062;-71
2021/08/04 04:12:51;;;;;;;3.40;1.60;;;11.40;94.20;;;;;;5931980;40;19942;-71
2021/08/04 04:16:53;;;;;;;3.78;1.98;;;11.40;94.20;;;;;;5929291;40;20045;-70
2021/08/04 04:20:55;;;;;;;3.65;1.58;;;11.50;94.30;;;;;;5932040;40;20069;-72
2021/08/04 04:24:57;;;;;;;3.20;1.70;;;11.40;94.40;;;;;;5931313;40;20365;-72
2021/08/04 04:28:59;;;;;;;2.60;1.60;;;11.50;94.70;;;;;;5934352;40;20404;-70
2021/08/04 04:33:02;;;;;;;2.70;1.70;;;11.50;94.70;;;;;;5933957;40;20040;-71
2021/08/04 04:37:03;;;;;;;;;;;11.50;94.80;;;;;;5932354;40;21441;-72
2021/08/04 04:41:05;;;;;;;4.63;2.20;;;11.60;94.40;;;;;;5932973;40;19980;-70
2021/08/04 04:45:08;;;;;;;3.67;1.60;;;11.70;94.60;;;;;;5934133;40;20044;-71
2021/08/04 04:49:10;;;;;;;3.47;1.52;;;11.80;94.70;;;;;;5932811;40;20055;-71
2021/08/04 04:53:11;;;;;;;3.42;1.85;;;12.00;94.80;;;;;;5932686;40;20337;-71
2021/08/04 04:57:13;;;;;;;3.83;1.92;;;12.10;94.70;;;;;;5932134;40;20048;-70
2021/08/04 05:01:15;;;;;;;2.83;1.80;;;12.30;94.70;;;;;;5934301;40;20037;-73
2021/08/04 05:05:17;;;;;;;;;;;12.50;94.70;;;;;;5935138;40;20047;-73
2021/08/04 05:09:19;;;;;;;4.57;1.50;;;12.70;94.30;;;;;;5931026;40;19945;-72
2021/08/04 05:13:21;;;;;;;3.33;1.63;;;12.90;94.30;;;;;;5932987;40;20367;-70
2021/08/04 05:17:23;;;;;;;4.10;1.60;;;13.10;94.50;;;;;;5933527;40;20048;-70
2021/08/04 05:21:25;;;;;;;2.92;1.70;;;13.30;94.50;;;;;;5930760;40;20056;-71
2021/08/04 05:25:27;;;;;;;5.57;2.13;;;13.40;94.50;;;;;;5932733;40;20048;-71
2021/08/04 05:29:29;;;;;;;4.00;1.73;;;13.40;94.70;;;;;;5932694;40;20341;-71
2021/08/04 05:33:31;;;;;;;4.90;2.10;;;13.60;94.80;;;;;;5930454;40;20044;-72
2021/08/04 05:37:33;;;;;;;3.85;1.70;;;13.60;95.00;;;;;;5933179;40;20045;-71
2021/08/04 05:41:35;;;;;;;6.72;1.95;;;13.70;95.20;;;;;;5930683;40;20051;-72
2021/08/04 05:45:38;;;;;;;6.13;1.95;;;13.80;95.20;;;;;;5933392;40;20053;-71
2021/08/04 05:49:39;;;;;;;4.55;1.92;;;14.00;95.90;;;;;;5933567;40;20039;-72
2021/08/04 05:53:41;;;;;;;4.28;1.80;;;14.30;96.10;;;;;;5930657;40;20064;-71
2021/08/04 05:57:43;;;;;;;3.47;1.83;;;14.40;96.00;;;;;;5937494;39;20060;-71
2021/08/04 06:01:45;;;;;;;;;;;14.50;96.00;;;;;;5934013;40;20096;-71
2021/08/04 06:05:47;;;;;;;3.93;2.13;;;14.60;99.90;;;;;;5933291;40;19952;-71
2021/08/04 06:09:49;;;;;;;3.58;2.05;;;14.70;97.10;;;;;;5932745;40;20101;-71
2021/08/04 06:13:51;;;;;;;4.68;1.98;;;14.80;97.30;;;;;;5930716;40;20048;-71
2021/08/04 06:17:52;;;;;;;4.25;1.77;;;14.90;97.50;;;;;;5930930;40;20057;-71
2021/08/04 06:21:54;;;;;;;5.75;1.70;;;15.00;97.40;;;;;;5928205;40;20130;-72
2021/08/04 06:25:56;;;;;;;5.25;1.45;;;15.10;97.40;;;;;;5932758;40;20406;-70
2021/08/04 06:30:15;;;;;;;5.07;2.20;;;15.20;96.90;;;;;;5924101;40;20055;-71
2021/08/04 06:34:17;;;;;;;2.38;1.50;;;15.40;96.40;;;;;;5931005;40;20060;-72
2021/08/04 06:38:19;;;;;;;7.57;1.92;;;15.60;96.70;;;;;;5927363;40;20057;-71
2021/08/04 06:42:21;;;;;;;3.15;1.70;;;15.70;96.40;;;;;;5931654;40;20044;-71
2021/08/04 06:46:23;;;;;;;8.63;2.15;;;15.80;96.50;;;;;;5930453;40;20991;-70
2021/08/04 06:50:26;;;;;;;4.63;1.48;;;15.90;96.40;;;;;;5932731;40;20400;-71
2021/08/04 06:54:28;;;;;;;7.15;2.40;;;16.00;96.40;;;;;;5927868;40;20041;-71
2021/08/04 06:58:30;;;;;;;6.20;1.17;;;16.10;96.40;;;;;;5934255;40;20075;-71
2021/08/04 07:02:32;;;;;;;7.03;1.42;;;16.20;96.20;;;;;;5928256;40;20037;-71
2021/08/04 07:06:34;;;;;;;7.68;1.50;;;16.30;96.10;;;;;;5933647;40;20056;-71
2021/08/04 07:10:36;;;;;;;3.95;1.45;;;16.50;95.90;;;;;;5934058;40;20088;-72
2021/08/04 07:14:38;;;;;;;5.13;1.30;;;16.60;95.80;;;;;;5933462;40;20056;-72
2021/08/04 07:18:40;;;;;;;3.65;1.17;;;16.70;95.70;;;;;;5930714;40;20109;-71
2021/08/04 07:22:42;;;;;;;4.90;1.20;;;16.70;95.60;;;;;;5933247;40;20093;-71
2021/08/04 07:26:45;;;;;;;3.10;1.00;;;16.80;95.50;;;;;;5933542;40;20044;-71
2021/08/04 07:30:47;;;;;;;;;;;16.00;95.20;;;;;;5928036;40;20060;-70
2021/08/04 07:34:48;;;;;;;4.07;1.02;;;17.00;94.90;;;;;;5932352;40;19936;-72
2021/08/04 07:38:50;;;;;;;2.42;0.80;;;17.20;94.50;;;;;;5929109;40;20118;-72
2021/08/04 07:42:53;;;;;;;2.78;1.10;;;17.30;94.30;;;;;;5927936;40;20048;-71
2021/08/04 07:46:55;;;;;;;2.22;0.60;;;17.50;94.30;;;;;;5930204;40;20064;-72
2021/08/04 07:50:58;;;;;;;;;;;17.60;93.60;;;;;;5931672;40;20048;-72
2021/08/04 07:55:03;;;;;;;1.75;0.50;;;17.80;91.60;;;;;;5930888;40;20377;-71
2021/08/04 07:59:05;;;;;;;2.17;0.65;;;17.90;92.20;;;;;;5931291;40;20049;-71
2021/08/04 08:03:06;;;;;;;;;;;18.00;91.70;;;;;;5926928;40;20119;-72
2021/08/04 08:07:09;;;;;;;;;;;18.20;92.30;;;;;;5931690;40;19994;-72
2021/08/04 08:11:10;;;;;;;1.25;0.55;;;18.30;93.30;;;;;;5930822;40;19933;-72
2021/08/04 08:15:13;;;;;;;2.22;0.93;;;18.50;90.60;;;;;;5930292;40;20105;-71
2021/08/04 08:19:15;;;;;;;1.73;0.68;;;18.70;90.50;;;;;;5926986;40;20072;-70
2021/08/04 08:23:16;;;;;;;1.33;0.47;;;18.80;89.70;;;;;;5929737;40;20052;-71
2021/08/04 08:27:18;;;;;;;1.77;0.85;;;18.80;89.70;;;;;;5928842;40;20416;-71
2021/08/04 08:31:20;;;;;;;1.55;0.65;;;18.80;89.20;;;;;;5927728;40;20108;-71
2021/08/04 08:35:22;;;;;;;1.83;0.80;;;18.70;89.90;;;;;;5929152;40;20052;-72
2021/08/04 08:39:24;;;;;;;2.00;0.82;;;18.80;90.80;;;;;;5927180;40;20069;-72
2021/08/04 08:43:26;;;;;;;;;;;19.00;89.20;;;;;;5929871;40;20048;-71
2021/08/04 08:47:29;;;;;;;2.38;0.82;;;19.20;91.70;;;;;;5926115;40;19955;-72
2021/08/04 08:51:31;;;;;;;1.80;0.70;;;19.50;90.60;;;;;;5927059;40;20060;-70
2021/08/04 08:55:33;;;;;;;;;;;19.70;89.50;;;;;;5928625;40;20060;-71
2021/08/04 08:59:35;;;;;;;1.63;0.80;;;19.70;84.10;;;;;;5928665;40;20311;-71
2021/08/04 09:03:37;;;;;;;3.05;0.75;;;19.70;90.30;;;;;;5926823;40;20056;-71
2021/08/04 09:07:41;;;;;;;2.30;0.90;;;19.90;90.30;;;;;;5928495;40;20392;-71
2021/08/04 09:11:43;;;;;;;2.60;0.88;;;19.70;90.10;;;;;;5933915;39;20328;-70
2021/08/04 09:15:45;;;;;;;3.22;0.80;;;19.80;89.20;;;;;;5935608;39;20072;-72
2021/08/04 09:19:48;;;;;;;;;;;19.50;89.90;;;;;;5926226;39;20611;-72
2021/08/04 09:23:53;;;;;;;3.05;0.88;;;19.30;82.30;;;;;;5929240;40;19928;-71
2021/08/04 09:27:57;;;;;;;2.28;1.00;;;19.30;90.50;;;;;;5936469;40;20053;-75
2021/08/04 09:32:00;;;;;;;2.10;0.80;;;19.70;90.20;;;;;;5940360;40;20351;-73
2021/08/04 09:36:02;;;;;;;;;;;19.80;89.90;;;;;;5941056;40;20130;-73
2021/08/04 09:40:06;;;;;;;3.10;0.98;;;20.00;81.20;;;;;;5940187;40;20011;-74
2021/08/04 09:44:17;;;;;;;4.43;1.00;;;19.90;87.70;;;;;;5940756;40;20097;-73
2021/08/04 09:48:24;;;;;;;2.40;0.97;;;19.70;86.30;;;;;;5938988;40;20036;-73
2021/08/04 09:52:27;;;;;;;3.38;1.15;;;19.40;88.80;;;;;;5937427;40;20146;-74
2021/08/04 09:56:32;;;;;;;3.35;1.30;;;19.60;90.00;;;;;;5930778;40;20388;-73
2021/08/04 10:00:34;;;;;;;3.50;1.10;;;19.80;89.70;;;;;;5939612;40;20083;-74
2021/08/04 10:04:36;;;;;;;2.92;1.30;;;19.80;88.40;;;;;;5938706;40;20060;-74
2021/08/04 10:08:38;;;;;;;;;;;19.70;88.50;;;;;;5939048;40;20131;-73
2021/08/04 10:12:40;;;;;;;3.45;0.82;;;19.60;81.80;;;;;;5938909;40;19936;-73
2021/08/04 10:16:42;;;;;;;;;;;19.60;88.70;;;;;;5940583;40;20086;-73
2021/08/04 10:20:46;;;;;;;3.25;0.80;;;19.50;82.10;;;;;;5939455;40;19959;-73
2021/08/04 10:24:48;;;;;;;3.00;1.00;;;19.50;90.00;;;;;;5934699;40;20040;-72
2021/08/04 10:28:57;;;;;;;2.85;1.27;;;19.60;88.50;;;;;;5941315;40;20177;-73
2021/08/04 10:33:06;;;;;;;2.15;1.02;;;19.70;87.80;;;;;;5933993;40;20053;-73
2021/08/04 10:37:10;;;;;;;1.85;0.98;;;19.90;85.80;;;;;;5936210;40;20066;-73
2021/08/04 10:41:19;;;;;;;2.55;1.13;;;19.90;86.40;;;;;;5937396;40;20051;-75
2021/08/04 10:45:46;;;;;;;1.88;0.80;;;20.10;87.70;;;;;;5939351;40;20083;-75
2021/08/04 10:50:06;;;;;;;;;;;20.20;86.20;;;;;;5937908;40;20724;-76
2021/08/04 10:54:34;;;;;;;1.60;0.90;;;20.30;82.10;;;;;;5931422;40;19955;-75
2021/08/04 10:59:08;;;;;;;2.22;0.95;;;20.50;85.30;;;;;;5940102;40;20060;-74
2021/08/04 11:03:41;;;;;;;2.15;0.80;;;20.60;86.20;;;;;;5946238;39;20390;-74
2021/08/04 11:08:24;;;;;;;3.35;0.90;;;20.90;79.10;;;;;;5939101;40;20066;-75
2021/08/04 11:12:36;;;;;;;2.67;1.20;;;21.00;78.00;;;;;;5939482;40;20047;-75
2021/08/04 11:16:38;;;;;;;2.50;1.15;;;21.00;85.20;;;;;;5938569;40;20081;-75
2021/08/04 11:21:10;;;;;;;4.03;0.90;;;21.00;83.60;;;;;;5938590;40;20331;-75
2021/08/04 11:25:26;;;;;;;2.17;0.90;;;21.20;84.30;;;;;;5929183;40;20080;-75
2021/08/04 11:29:44;;;;;;;2.50;0.93;;;21.50;84.10;;;;;;5939479;40;20466;-74
2021/08/04 11:33:46;;;;;;;1.98;0.80;;;21.90;79.70;;;;;;5935449;40;20070;-74
2021/08/04 11:37:48;;;;;;;3.00;0.90;;;21.80;83.00;;;;;;5928751;40;20139;-75
2021/08/04 11:41:50;;;;;;;;;;;21.80;83.90;;;;;;5935858;40;20053;-72
2021/08/04 11:45:52;;;;;;;2.08;0.95;;;21.60;78.60;;;;;;5934924;40;19944;-73
2021/08/04 11:49:54;;;;;;;4.40;1.02;;;21.40;83.90;;;;;;5933538;40;20095;-73
2021/08/04 11:53:57;;;;;;;2.28;0.80;;;21.20;83.00;;;;;;5934750;40;20071;-73
2021/08/04 11:57:59;;;;;;;1.65;0.90;;;20.80;83.30;;;;;;5933676;40;20044;-73
2021/08/04 12:02:02;;;;;;;2.83;0.90;;;20.60;84.10;;;;;;5936133;40;20493;-72
2021/08/04 12:06:30;;;;;;;2.05;1.05;;;20.40;84.00;;;;;;5937472;40;20435;-73
2021/08/04 12:10:50;;;;;;;;;;;20.50;84.10;;;;;;5938659;40;20051;-73
2021/08/04 12:14:52;;;;;;;3.28;0.90;;;20.50;80.30;;;;;;5944102;39;19933;-72
2021/08/04 12:19:07;;;;;;;2.88;0.98;;;20.50;84.20;;;;;;5935693;40;20045;-73
2021/08/04 12:23:12;;;;;;;1.55;0.80;;;21.30;84.00;;;;;;5936224;40;20033;-73
2021/08/04 12:27:27;;;;;;;2.40;1.15;;;20.60;83.60;;;;;;5936462;40;20057;-73
2021/08/04 12:31:38;;;;;;;2.58;1.17;;;20.80;84.50;;;;;;5937156;40;20052;-73
2021/08/04 12:36:02;;;;;;;6.80;1.20;;;21.00;81.50;;;;;;5936709;40;20052;-73
2021/08/04 12:40:45;;;;;;;1.77;0.77;;;20.80;81.70;;;;;;5935730;40;20163;-72
2021/08/04 12:45:17;;;;;;;3.00;1.00;;;20.90;82.60;;;;;;5935005;40;20033;-72
2021/08/04 12:49:25;;;;;;;2.47;1.00;;;20.80;81.20;;;;;;5938297;40;20052;-72
2021/08/04 12:53:40;;;;;;;2.58;1.15;;;20.80;82.50;;;;;;5939736;40;20498;-73
2021/08/04 12:57:43;;;;;;;2.10;1.30;;;20.90;82.10;;;;;;5938755;40;20064;-73
2021/08/04 13:01:47;;;;;;;2.28;1.00;;;21.00;81.80;;;;;;5936334;40;20057;-72
2021/08/04 13:05:49;;;;;;;3.65;1.25;;;21.40;82.10;;;;;;5935879;40;20088;-73
2021/08/04 13:09:52;;;;;;;;;;;21.40;81.60;;;;;;5938965;40;20096;-72
2021/08/04 13:14:13;;;;;;;2.03;0.70;;;21.50;76.70;;;;;;5944421;39;19944;-72
2021/08/04 13:18:15;;;;;;;3.05;1.10;;;21.70;81.40;;;;;;5936541;40;20067;-72
2021/08/04 13:22:17;;;;;;;5.30;1.00;;;21.70;79.80;;;;;;5936747;40;20087;-74
2021/08/04 13:26:21;;;;;;;2.85;1.00;;;21.70;81.40;;;;;;5939596;40;20107;-73
2021/08/04 13:30:29;;;;;;;4.72;1.13;;;21.70;82.20;;;;;;5939609;40;20088;-72
2021/08/04 13:34:31;;;;;;;3.90;1.10;;;21.80;81.90;;;;;;5939925;40;20052;-73
2021/08/04 13:38:33;;;;;;;;;;;21.90;80.70;;;;;;5938308;40;20049;-73
2021/08/04 13:42:41;;;;;;;2.60;1.00;;;21.80;78.30;;;;;;5937590;40;20374;-72
2021/08/04 13:46:43;;;;;;;2.15;0.90;;;21.60;81.70;;;;;;5938753;40;20067;-71
2021/08/04 13:50:54;;;;;;;2.38;1.00;;;21.40;81.80;;;;;;5938816;40;20056;-73
2021/08/04 13:54:57;;;;;;;3.00;1.10;;;21.40;80.30;;;;;;5937460;40;20059;-72
2021/08/04 13:58:59;;;;;;;2.42;1.10;;;21.40;82.30;;;;;;5940050;40;20056;-72
2021/08/04 14:03:02;;;;;;;;;;;21.20;81.10;;;;;;5936287;40;20036;-73
2021/08/04 14:07:04;;;;;;;5.65;1.25;;;21.00;77.60;;;;;;5939713;40;19976;-72
2021/08/04 14:11:06;;;;;;;;;;;21.00;80.90;;;;;;5940023;40;20056;-72
2021/08/04 14:15:22;;;;;;;2.38;1.05;;;20.90;76.50;;;;;;5937604;40;19945;-72
2021/08/04 14:19:24;;;;;;;2.53;0.95;;;20.80;81.60;;;;;;5937682;40;20121;-72
2021/08/04 14:23:26;;;;;;;;;;;21.00;81.50;;;;;;5940502;40;20051;-71
2021/08/04 14:27:28;;;;;;;1.90;0.80;;;20.90;76.10;;;;;;5938661;40;20304;-72
2021/08/04 14:31:35;;;;;;;;;;;20.90;81.40;;;;;;5947604;39;20062;-72
2021/08/04 14:35:38;;;;;;;5.72;1.20;;;21.00;75.00;;;;;;5939401;40;19937;-73
2021/08/04 14:39:40;;;;;;;3.08;1.00;;;21.00;79.90;;;;;;5939468;40;20052;-72
2021/08/04 14:43:42;;;;;;;2.10;1.02;;;21.10;80.30;;;;;;5940106;40;20049;-72
2021/08/04 14:47:44;;;;;;;3.55;1.40;;;21.00;80.30;;;;;;5938905;40;20057;-73
2021/08/04 14:51:46;;;;;;;4.55;1.00;;;20.90;80.10;;;;;;5931870;40;20087;-73
2021/08/04 14:55:48;;;;;;;2.40;0.90;;;21.00;80.40;;;;;;5940043;40;20394;-73
2021/08/04 14:59:50;;;;;;;1.73;0.80;;;20.90;80.20;;;;;;5939261;40;20068;-73
2021/08/04 15:03:52;;;;;;;;;;;20.80;81.20;;;;;;5939639;40;20066;-72
2021/08/04 15:07:53;;;;;;;5.88;1.67;;;20.50;77.80;;;;;;5937794;40;19936;-73
2021/08/04 15:11:55;;;;;;;3.20;0.90;;;20.50;81.60;;;;;;5937531;40;20106;-74
2021/08/04 15:15:57;;;;;;;;;;;20.40;81.30;;;;;;5939520;40;20096;-73
2021/08/04 15:20:00;;;;;;;2.70;0.95;;;20.50;80.50;;;;;;5938568;40;19936;-72
2021/08/04 15:24:02;;;;;;;2.70;0.88;;;20.20;82.70;;;;;;5936751;40;20178;-73
2021/08/04 15:28:04;;;;;;;5.13;0.80;;;20.20;82.90;;;;;;5939670;40;20125;-73
2021/08/04 15:32:06;;;;;;;3.85;1.08;;;20.30;82.20;;;;;;5938253;40;20572;-72
2021/08/04 15:36:15;;;;;;;4.53;1.98;;;20.20;82.20;;;;;;5940303;40;20060;-72
2021/08/04 15:40:19;;;;;;;5.65;1.90;;;20.20;82.20;;;;;;5939107;39;20097;-72
2021/08/04 15:44:21;;;;;;;3.75;1.42;;;20.20;82.20;;;;;;5936233;40;20080;-72
2021/08/04 15:48:22;;;;;;;;;;;20.00;82.60;;;;;;5940212;40;20088;-72
2021/08/04 15:52:24;;;;;;;2.10;0.85;;;19.90;81.80;;;;;;5928448;40;19936;-73
2021/08/04 15:56:26;;;;;;;;;;;20.10;82.10;;;;;;5939492;40;20066;-73
2021/08/04 16:00:28;;;;;;;2.90;0.90;;;20.10;79.30;;;;;;5937106;40;19933;-73
2021/08/04 16:04:29;;;;;;;;;;;20.10;82.30;;;;;;5937116;40;20110;-73
2021/08/04 16:08:31;;;;;;;2.17;0.90;;;20.10;78.30;;;;;;5938814;40;20155;-73
2021/08/04 16:12:33;;;;;;;;;;;20.00;82.20;;;;;;5938810;40;20037;-72
2021/08/04 16:16:36;;;;;;;2.88;0.80;;;20.00;79.80;;;;;;5934070;40;19940;-73
2021/08/04 16:20:41;;;;;;;2.67;1.23;;;20.10;82.00;;;;;;5940018;40;20019;-71
2021/08/04 16:24:52;;;;;;;3.72;1.55;;;20.10;81.60;;;;;;5938541;40;20053;-72
2021/08/04 16:28:54;;;;;;;8.10;1.75;;;20.20;81.20;;;;;;5938850;40;20138;-76
2021/08/04 16:32:56;;;;;;;;;;;20.10;80.80;;;;;;5942749;40;20063;-75
2021/08/04 16:36:58;;;;;;;1.80;0.90;;;20.10;79.00;;;;;;5940333;40;19998;-75
2021/08/04 16:41:27;;;;;;;1.90;0.85;;;20.10;80.70;;;;;;5930337;40;20816;-75
2021/08/04 16:45:29;;;;;;;2.53;1.15;;;20.10;78.50;;;;;;5933024;40;20106;-78
2021/08/04 16:49:31;;;;;;;1.73;0.80;;;20.00;80.10;;;;;;5944987;39;20057;-74
2021/08/04 16:53:33;;;;;;;3.75;1.20;;;20.00;80.10;;;;;;5940290;40;20041;-76
2021/08/04 16:57:37;;;;;;;;;;;19.90;80.40;;;;;;5942567;40;20478;-77
2021/08/04 17:01:39;;;;;;;3.72;0.90;;;19.90;79.20;;;;;;5942917;40;19948;-76
2021/08/04 17:05:42;;;;;;;2.80;1.40;;;19.90;81.10;;;;;;5939791;40;20048;-76
2021/08/04 17:09:44;;;;;;;2.17;1.10;;;19.90;80.70;;;;;;5938806;40;20126;-74
2021/08/04 17:13:45;;;;;;;;;;;19.80;80.90;;;;;;5942016;40;20048;-75
2021/08/04 17:17:47;;;;;;;11.05;4.53;;;19.80;78.90;;;;;;5946333;39;19948;-75
2021/08/04 17:21:49;;;;;;;3.75;1.50;;;19.80;81.40;;;;;;5932228;40;20044;-75
2021/08/04 17:25:51;;;;;;;;;;;19.80;81.80;;;;;;5948117;39;20065;-76
2021/08/04 17:29:53;;;;;;;2.72;1.02;;;19.70;80.20;;;;;;5939454;40;19939;-75
2021/08/04 17:33:55;;;;;;;2.30;0.80;;;19.70;81.60;;;;;;5940005;40;20045;-75
2021/08/04 17:37:56;;;;;;;;;;;19.80;81.20;;;;;;5940173;40;20067;-76
2021/08/04 17:41:58;;;;;;;2.45;1.23;;;19.60;80.00;;;;;;5947701;39;19985;-75
2021/08/04 17:46:02;;;;;;;;;;;19.60;81.70;;;;;;5941791;40;20256;-75
2021/08/04 17:50:05;;;;;;;2.42;1.17;;;19.60;79.60;;;;;;5942403;40;19944;-75
2021/08/04 17:54:07;;;;;;;4.10;1.08;;;19.50;81.50;;;;;;5942157;40;20045;-75
2021/08/04 17:58:08;;;;;;;2.35;1.10;;;19.40;81.40;;;;;;5933348;39;20062;-75
2021/08/04 18:02:10;;;;;;;;;;;19.40;81.40;;;;;;5941639;40;20052;-76
2021/08/04 18:06:12;;;;;;;2.63;1.30;;;19.10;78.70;;;;;;5943578;40;19948;-76
2021/08/04 18:10:14;;;;;;;;;;;19.20;81.40;;;;;;5943567;40;20057;-74
2021/08/04 18:14:16;;;;;;;3.25;1.20;;;20.00;81.20;;;;;;5942404;40;19940;-75
2021/08/04 18:18:18;;;;;;;;;;;19.20;81.90;;;;;;5934807;40;20067;-72
2021/08/04 18:22:20;;;;;;;2.88;1.23;;;19.20;80.40;;;;;;5934075;40;19965;-73
2021/08/04 18:26:23;;;;;;;2.72;0.93;;;19.20;81.90;;;;;;5939760;40;20387;-72
2021/08/04 18:30:25;;;;;;;2.28;1.00;;;19.20;81.80;;;;;;5940794;40;20127;-72
2021/08/04 18:34:26;;;;;;;;;;;19.20;81.40;;;;;;5940091;40;20089;-72
2021/08/04 18:38:28;;;;;;;3.83;1.05;;;19.20;82.50;;;;;;5938422;40;19943;-73
2021/08/04 18:42:30;;;;;;;2.42;1.20;;;19.10;81.80;;;;;;5938914;40;20045;-73
2021/08/04 18:46:32;;;;;;;4.68;1.45;;;19.10;81.70;;;;;;5928310;40;20395;-75
2021/08/04 18:50:34;;;;;;;;;;;19.00;81.70;;;;;;5937159;40;20957;-73
2021/08/04 18:54:36;;;;;;;7.50;1.98;;;19.00;82.30;;;;;;5946773;39;20226;-73
2021/08/04 18:58:38;;;;;;;3.67;1.13;;;18.90;81.90;;;;;;5938740;40;20040;-73
2021/08/04 19:02:57;;;;;;;4.30;1.17;;;18.80;82.30;;;;;;5936667;40;20059;-73
2021/08/04 19:06:59;;;;;;;5.22;1.42;;;18.90;82.20;;;;;;5937762;40;20037;-74
2021/08/04 19:11:01;;;;;;;4.07;1.20;;;18.80;82.30;;;;;;5938051;40;20100;-74
2021/08/04 19:15:03;;;;;;;3.13;1.23;;;18.80;82.70;;;;;;5939106;40;20096;-73
2021/08/04 19:19:05;;;;;;;3.38;1.33;;;18.80;82.60;;;;;;5937768;40;20062;-79
2021/08/04 19:23:07;;;;;;;6.05;1.70;;;18.70;82.70;;;;;;5938539;40;20044;-73
2021/08/04 19:27:09;;;;;;;;;;;18.70;82.70;;;;;;5940180;40;20422;-75
2021/08/04 19:31:11;;;;;;;3.42;1.50;;;18.60;82.10;;;;;;5938650;40;20225;-74
2021/08/04 19:35:12;;;;;;;;;;;18.50;83.00;;;;;;5937437;40;20049;-73
2021/08/04 19:39:14;;;;;;;4.93;1.98;;;18.50;83.10;;;;;;5939435;40;19932;-73
2021/08/04 19:43:21;;;;;;;3.83;1.38;;;18.50;83.20;;;;;;5935656;40;20049;-74
2021/08/04 19:47:23;;;;;;;6.57;1.48;;;18.50;83.10;;;;;;5936506;40;20656;-73
2021/08/04 19:51:25;;;;;;;3.95;1.70;;;18.40;83.30;;;;;;5938611;40;20040;-74
2021/08/04 19:55:28;;;;;;;5.32;1.55;;;18.30;83.70;;;;;;5937345;40;20041;-71
2021/08/04 19:59:30;;;;;;;4.25;2.53;;;18.30;84.30;;;;;;5937818;40;20074;-71
2021/08/04 20:03:33;;;;;;;5.43;2.17;;;18.20;83.90;;;;;;5945653;39;20064;-72
2021/08/04 20:07:35;;;;;;;6.88;1.90;;;18.20;84.50;;;;;;5928711;40;20060;-71
2021/08/04 20:11:37;;;;;;;4.75;1.60;;;18.10;84.60;;;;;;5934605;40;20064;-71
2021/08/04 20:15:38;;;;;;;5.22;2.08;;;17.90;84.80;;;;;;5934429;40;20063;-71
2021/08/04 20:19:42;;;;;;;5.57;2.03;;;17.90;85.20;;;;;;5937712;40;20097;-71
2021/08/04 20:23:44;;;;;;;3.13;1.50;;;17.80;85.70;;;;;;5936721;40;20116;-70
2021/08/04 20:27:45;;;;;;;;;;;17.70;86.00;;;;;;5936587;40;20158;-70
2021/08/04 20:31:49;;;;;;;3.65;1.67;;;17.60;86.10;;;;;;5934223;40;20010;-70
2021/08/04 20:35:50;;;;;;;3.47;1.70;;;17.60;86.00;;;;;;5935467;40;20046;-71
2021/08/04 20:39:53;;;;;;;5.55;2.20;;;17.50;86.10;;;;;;5935578;40;20099;-70
2021/08/04 20:43:55;;;;;;;3.33;1.80;;;17.50;86.50;;;;;;5935257;40;20045;-70
2021/08/04 20:47:59;;;;;;;6.70;2.05;;;17.40;86.90;;;;;;5930508;40;20063;-70
2021/08/04 20:52:01;;;;;;;3.33;1.92;;;17.30;86.80;;;;;;5935605;40;20602;-70
2021/08/04 20:56:05;;;;;;;3.97;1.98;;;17.30;87.00;;;;;;5934152;40;20449;-70
2021/08/04 21:00:10;;;;;;;5.55;2.25;;;17.20;86.90;;;;;;5921538;40;20056;-71
2021/08/04 21:04:11;;;;;;;6.68;2.22;;;17.10;87.20;;;;;;5931374;40;20116;-70
2021/08/04 21:08:13;;;;;;;8.45;2.60;;;17.00;87.40;;;;;;5936453;40;20033;-71
2021/08/04 21:12:15;;;;;;;4.03;2.10;;;16.90;87.60;;;;;;5936066;40;20045;-71
2021/08/04 21:16:22;;;;;;;5.03;2.40;;;16.80;87.80;;;;;;5937772;40;20061;-71
2021/08/04 21:20:24;;;;;;;6.05;2.05;;;17.00;88.20;;;;;;5943183;39;20052;-73
2021/08/04 21:24:26;;;;;;;4.32;1.98;;;16.70;88.30;;;;;;5936969;40;20051;-70
2021/08/04 21:28:28;;;;;;;4.30;1.90;;;16.60;88.30;;;;;;5937828;40;20047;-71
2021/08/04 21:32:30;;;;;;;4.68;2.30;;;16.60;88.10;;;;;;5934620;40;20048;-70